createdAt,value
2019-02-24T00:01:48.787Z,44.57
2019-02-24T00:04:17.408Z,44.10
2019-02-24T00:06:46.044Z,23.37
2019-02-24T00:09:14.684Z,37.20
2019-02-24T00:11:43.290Z,36.40
2019-02-24T00:14:11.907Z,51.07
2019-02-24T00:16:40.569Z,35.03
2019-02-24T00:19:09.376Z,35.37
2019-02-24T00:21:39.627Z,32.40
2019-02-24T00:24:08.287Z,36.13
2019-02-24T00:26:37.033Z,31.37
2019-02-24T00:29:05.600Z,33.97
2019-02-24T00:31:34.166Z,26.87
2019-02-24T00:34:02.729Z,29.17
2019-02-24T00:36:31.426Z,24.83
2019-02-24T00:39:00.012Z,26.20
2019-02-24T00:41:28.664Z,21.77
2019-02-24T00:43:57.295Z,26.37
2019-02-24T00:46:25.879Z,25.03
2019-02-24T00:48:54.471Z,25.13
2019-02-24T00:51:23.220Z,23.40
2019-02-24T00:53:51.842Z,24.13
2019-02-24T00:56:20.538Z,26.30
2019-02-24T00:58:49.013Z,25.63
2019-02-24T01:01:17.654Z,26.97
2019-02-24T01:03:46.317Z,26.63
2019-02-24T01:06:15.024Z,25.00
2019-02-24T01:08:43.782Z,26.33
2019-02-24T01:11:12.322Z,23.93
2019-02-24T01:13:40.909Z,26.40
2019-02-24T01:16:09.550Z,25.47
2019-02-24T01:18:39.150Z,25.77
2019-02-24T01:21:07.788Z,21.63
2019-02-24T01:23:38.937Z,22.80
2019-02-24T01:26:07.679Z,21.03
2019-02-24T01:28:36.204Z,24.93
2019-02-24T01:31:04.844Z,25.03
2019-02-24T01:33:33.447Z,24.17
2019-02-24T01:36:01.941Z,26.27
2019-02-24T01:38:30.506Z,82.63
2019-02-24T01:40:59.138Z,32.77
2019-02-24T01:43:27.653Z,28.70
2019-02-24T01:45:56.218Z,23.73
2019-02-24T01:48:27.805Z,37.93
2019-02-24T01:50:56.286Z,27.90
2019-02-24T01:53:24.926Z,33.23
2019-02-24T01:55:53.588Z,38.37
2019-02-24T01:58:22.303Z,27.93
2019-02-24T02:00:50.948Z,28.07
2019-02-24T02:03:19.555Z,40.00
2019-02-24T02:05:48.193Z,34.60
2019-02-24T02:08:16.830Z,44.23
2019-02-24T02:10:45.493Z,28.60
2019-02-24T02:13:13.982Z,30.13
2019-02-24T02:15:42.628Z,52.27
2019-02-24T02:18:11.216Z,48.87
2019-02-24T02:20:39.864Z,42.37
2019-02-24T02:23:08.466Z,34.00
2019-02-24T02:25:37.136Z,41.60
2019-02-24T02:28:05.759Z,38.90
2019-02-24T02:30:34.510Z,35.03
2019-02-24T02:33:03.195Z,31.07
2019-02-24T02:35:31.789Z,35.27
2019-02-24T02:38:00.376Z,36.13
2019-02-24T02:40:30.540Z,40.57
2019-02-24T02:42:59.103Z,47.83
2019-02-24T02:45:27.666Z,35.43
2019-02-24T02:47:56.263Z,35.03
2019-02-24T02:50:26.727Z,34.63
2019-02-24T02:52:55.332Z,30.80
2019-02-24T02:55:23.823Z,29.13
2019-02-24T02:57:52.564Z,30.30
2019-02-24T03:00:27.255Z,33.70
2019-02-24T03:02:55.923Z,36.57
2019-02-24T03:05:24.556Z,34.03
2019-02-24T03:08:03.801Z,31.87
2019-02-24T03:10:32.351Z,35.93
2019-02-24T03:13:00.843Z,32.70
2019-02-24T03:15:29.455Z,62.93
2019-02-24T03:17:58.009Z,70.03
2019-02-24T03:20:26.638Z,73.80
2019-02-24T03:22:55.204Z,76.33
2019-02-24T03:25:23.900Z,62.43
2019-02-24T03:27:52.598Z,62.47
2019-02-24T03:30:21.316Z,71.30
2019-02-24T03:32:49.948Z,73.10
2019-02-24T03:35:18.503Z,69.70
2019-02-24T03:37:47.105Z,67.97
2019-02-24T03:40:15.723Z,67.00
2019-02-24T03:42:44.410Z,66.90
2019-02-24T03:45:13.086Z,67.63
2019-02-24T03:47:41.785Z,103.47
2019-02-24T03:50:10.432Z,72.80
2019-02-24T03:52:39.094Z,80.37
2019-02-24T03:55:08.022Z,82.00
2019-02-24T03:57:36.647Z,96.67
2019-02-24T04:00:06.613Z,85.23
2019-02-24T04:02:35.197Z,91.60
2019-02-24T04:05:04.034Z,95.83
2019-02-24T04:07:32.772Z,82.17
2019-02-24T04:10:01.501Z,110.17
2019-02-24T04:12:30.053Z,105.03
2019-02-24T04:14:58.727Z,101.97
2019-02-24T04:17:27.365Z,107.70
2019-02-24T04:19:56.008Z,101.07
2019-02-24T04:22:24.619Z,111.90
2019-02-24T04:24:53.138Z,105.13
2019-02-24T04:27:21.736Z,102.47
2019-02-24T04:29:50.410Z,98.57
2019-02-24T04:32:18.991Z,101.63
2019-02-24T04:34:47.470Z,96.30
2019-02-24T04:37:16.020Z,99.10
2019-02-24T04:39:44.510Z,99.23
2019-02-24T04:42:13.090Z,97.97
2019-02-24T04:44:41.715Z,102.63
2019-02-24T04:47:10.292Z,110.87
2019-02-24T04:49:38.980Z,109.13
2019-02-24T04:52:07.580Z,101.53
2019-02-24T04:54:36.153Z,91.80
2019-02-24T04:57:04.708Z,104.27
2019-02-24T04:59:35.266Z,99.77
2019-02-24T05:02:03.737Z,104.93
2019-02-24T05:04:32.223Z,104.00
2019-02-24T05:07:00.858Z,100.67
2019-02-24T05:09:29.424Z,109.17
2019-02-24T05:11:58.227Z,105.83
2019-02-24T05:14:26.903Z,102.33
2019-02-24T05:16:55.485Z,99.83
2019-02-24T05:19:24.052Z,99.97
2019-02-24T05:21:52.654Z,104.77
2019-02-24T05:24:21.224Z,105.83
2019-02-24T05:26:49.869Z,103.03
2019-02-24T05:29:20.349Z,94.17
2019-02-24T05:31:48.747Z,107.47
2019-02-24T05:34:17.431Z,105.80
2019-02-24T05:36:46.093Z,108.73
2019-02-24T05:39:14.597Z,109.43
2019-02-24T05:41:43.184Z,107.93
2019-02-24T05:44:11.885Z,103.97
2019-02-24T05:46:40.522Z,127.43
2019-02-24T05:49:09.086Z,114.87
2019-02-24T05:51:37.687Z,120.17
2019-02-24T05:54:06.832Z,119.10
2019-02-24T05:56:35.333Z,110.73
2019-02-24T05:59:03.932Z,92.43
2019-02-24T06:01:32.569Z,122.13
2019-02-24T06:04:01.158Z,127.23
2019-02-24T06:06:29.715Z,130.60
2019-02-24T06:08:58.406Z,116.87
2019-02-24T06:11:26.938Z,110.00
2019-02-24T06:13:55.579Z,177.13
2019-02-24T06:16:24.075Z,138.47
2019-02-24T06:18:52.652Z,186.23
2019-02-24T06:21:21.263Z,135.57
2019-02-24T06:23:49.790Z,124.80
2019-02-24T06:26:18.362Z,133.83
2019-02-24T06:28:47.056Z,117.60
2019-02-24T06:31:15.637Z,123.57
2019-02-24T06:33:47.493Z,114.00
2019-02-24T06:36:16.119Z,103.70
2019-02-24T06:38:44.749Z,125.77
2019-02-24T06:41:13.315Z,103.63
2019-02-24T06:43:41.974Z,101.87
2019-02-24T06:46:10.540Z,110.80
2019-02-24T06:48:39.183Z,101.43
2019-02-24T06:51:09.526Z,120.97
2019-02-24T06:53:38.118Z,124.70
2019-02-24T06:56:06.685Z,108.93
2019-02-24T06:58:35.388Z,107.20
2019-02-24T07:01:04.030Z,98.97
2019-02-24T07:03:32.661Z,99.03
2019-02-24T07:06:01.270Z,95.83
2019-02-24T07:08:29.928Z,101.70
2019-02-24T07:10:58.644Z,97.40
2019-02-24T07:13:27.302Z,94.67
2019-02-24T07:15:55.795Z,94.43
2019-02-24T07:18:24.424Z,89.37
2019-02-24T07:20:52.957Z,95.33
2019-02-24T07:23:21.531Z,89.93
2019-02-24T07:25:50.157Z,88.33
2019-02-24T07:28:18.753Z,86.93
2019-02-24T07:30:47.319Z,103.97
2019-02-24T07:33:15.931Z,85.47
2019-02-24T07:35:44.654Z,100.97
2019-02-24T07:38:15.918Z,102.23
2019-02-24T07:40:44.491Z,98.27
2019-02-24T07:43:13.134Z,104.37
2019-02-24T07:45:41.851Z,105.33
2019-02-24T07:48:12.011Z,108.80
2019-02-24T07:50:40.677Z,102.20
2019-02-24T07:53:09.306Z,99.73
2019-02-24T07:55:37.816Z,90.40
2019-02-24T07:58:06.417Z,97.70
2019-02-24T08:00:35.051Z,97.47
2019-02-24T08:03:03.674Z,99.63
2019-02-24T08:05:32.438Z,98.40
2019-02-24T08:08:02.499Z,98.00
2019-02-24T08:10:31.229Z,94.53
2019-02-24T08:12:59.841Z,96.93
2019-02-24T08:15:28.577Z,100.40
2019-02-24T08:17:57.211Z,91.07
2019-02-24T08:20:27.249Z,88.67
2019-02-24T08:22:55.749Z,82.03
2019-02-24T08:25:24.448Z,91.37
2019-02-24T08:27:55.457Z,87.27
2019-02-24T08:30:25.970Z,88.43
2019-02-24T08:32:54.533Z,83.07
2019-02-24T08:35:23.400Z,78.87
2019-02-24T08:37:52.058Z,79.87
2019-02-24T08:40:20.687Z,79.13
2019-02-24T08:42:49.290Z,71.80
2019-02-24T08:45:17.935Z,61.80
2019-02-24T08:47:46.488Z,65.10
2019-02-24T08:50:15.175Z,50.33
2019-02-24T08:52:43.728Z,52.23
2019-02-24T08:55:12.298Z,49.07
2019-02-24T08:57:40.931Z,57.83
2019-02-24T09:00:12.624Z,50.97
2019-02-24T09:02:41.393Z,51.00
2019-02-24T09:05:10.016Z,51.30
2019-02-24T09:07:38.662Z,58.80
2019-02-24T09:10:09.497Z,59.13
2019-02-24T09:12:38.168Z,54.97
2019-02-24T09:15:12.262Z,61.00
2019-02-24T09:17:42.517Z,55.27
2019-02-24T09:20:12.551Z,71.30
2019-02-24T09:22:41.183Z,53.63
2019-02-24T09:25:09.764Z,57.30
2019-02-24T09:27:38.417Z,74.03
2019-02-24T09:30:09.959Z,52.80
2019-02-24T09:32:38.618Z,50.70
2019-02-24T09:35:08.594Z,51.17
2019-02-24T09:37:37.226Z,50.53
2019-02-24T09:40:11.020Z,54.80
2019-02-24T09:42:39.709Z,68.93
2019-02-24T09:45:10.621Z,49.97
2019-02-24T09:47:46.400Z,44.67
2019-02-24T09:50:10.769Z,46.17
2019-02-24T09:52:39.412Z,62.30
2019-02-24T09:55:09.251Z,53.67
2019-02-24T09:57:39.050Z,51.30
2019-02-24T10:00:15.906Z,47.67
2019-02-24T10:02:44.588Z,49.23
2019-02-24T10:05:13.214Z,54.47
2019-02-24T10:07:43.331Z,45.97
2019-02-24T10:10:13.782Z,47.40
2019-02-24T10:12:42.988Z,43.93
2019-02-24T10:15:14.171Z,43.90
2019-02-24T10:17:46.602Z,45.47
2019-02-24T10:20:15.329Z,50.73
2019-02-24T10:22:44.265Z,45.47
2019-02-24T10:25:13.211Z,41.27
2019-02-24T10:27:41.911Z,55.37
2019-02-24T10:30:17.253Z,53.97
2019-02-24T10:32:45.927Z,49.13
2019-02-24T10:35:14.644Z,45.40
2019-02-24T10:37:43.281Z,41.40
2019-02-24T10:40:18.143Z,55.90
2019-02-24T10:42:46.860Z,62.27
2019-02-24T10:45:17.086Z,50.03
2019-02-24T10:47:49.313Z,43.13
2019-02-24T10:50:18.543Z,41.33
2019-02-24T10:52:47.184Z,50.47
2019-02-24T10:55:15.849Z,43.57
2019-02-24T10:57:44.865Z,39.73
2019-02-24T11:00:15.712Z,39.93
2019-02-24T11:02:44.394Z,45.03
2019-02-24T11:05:14.036Z,41.87
2019-02-24T11:07:42.769Z,41.40
2019-02-24T11:10:12.464Z,41.03
2019-02-24T11:12:41.085Z,47.97
2019-02-24T11:15:11.512Z,44.53
2019-02-24T11:17:40.253Z,36.27
2019-02-24T11:20:12.087Z,40.33
2019-02-24T11:22:42.173Z,41.20
2019-02-24T11:25:11.745Z,45.53
2019-02-24T11:27:40.380Z,35.13
2019-02-24T11:30:11.611Z,37.63
2019-02-24T11:32:40.304Z,39.07
2019-02-24T11:35:13.120Z,36.73
2019-02-24T11:37:41.811Z,37.80
2019-02-24T11:40:13.149Z,41.60
2019-02-24T11:42:41.784Z,41.73
2019-02-24T11:45:11.017Z,50.60
2019-02-24T11:47:39.755Z,42.27
2019-02-24T11:50:12.531Z,41.07
2019-02-24T11:52:41.159Z,39.67
2019-02-24T11:55:11.124Z,37.63
2019-02-24T11:57:40.068Z,70.43
2019-02-24T12:00:14.829Z,31.20
2019-02-24T12:02:43.501Z,36.20
2019-02-24T12:05:12.231Z,37.77
2019-02-24T12:07:40.789Z,38.37
2019-02-24T12:10:11.983Z,38.70
2019-02-24T12:12:40.609Z,35.90
2019-02-24T12:15:11.878Z,32.17
2019-02-24T12:17:40.481Z,32.87
2019-02-24T12:20:10.916Z,35.20
2019-02-24T12:22:41.443Z,35.90
2019-02-24T12:25:11.237Z,43.17
2019-02-24T12:27:39.865Z,40.40
2019-02-24T12:30:13.003Z,37.80
2019-02-24T12:32:42.562Z,31.37
2019-02-24T12:35:12.852Z,34.30
2019-02-24T12:37:41.422Z,34.53
2019-02-24T12:40:14.644Z,36.27
2019-02-24T12:42:43.494Z,36.20
2019-02-24T12:45:12.621Z,33.13
2019-02-24T12:47:41.305Z,33.03
2019-02-24T12:50:12.259Z,41.40
2019-02-24T12:52:40.910Z,35.07
2019-02-24T12:55:10.881Z,30.73
2019-02-24T12:57:40.304Z,33.83
2019-02-24T13:00:17.539Z,27.47
2019-02-24T13:02:46.113Z,28.97
2019-02-24T13:05:14.807Z,26.83
2019-02-24T13:07:44.574Z,23.40
2019-02-24T13:10:16.177Z,23.13
2019-02-24T13:12:44.804Z,26.40
2019-02-24T13:15:13.680Z,22.77
2019-02-24T13:17:43.956Z,22.57
2019-02-24T13:20:13.269Z,22.10
2019-02-24T13:22:41.923Z,22.43
2019-02-24T13:25:12.065Z,21.43
2019-02-24T13:27:40.688Z,18.07
2019-02-24T13:30:12.275Z,18.03
2019-02-24T13:32:40.908Z,17.57
2019-02-24T13:35:09.840Z,20.73
2019-02-24T13:37:38.502Z,41.23
2019-02-24T13:40:12.407Z,18.30
2019-02-24T13:42:41.047Z,16.77
2019-02-24T13:45:15.474Z,17.83
2019-02-24T13:47:44.991Z,18.67
2019-02-24T13:50:14.720Z,21.77
2019-02-24T13:52:43.458Z,18.03
2019-02-24T13:55:13.898Z,21.87
2019-02-24T13:57:42.941Z,20.77
2019-02-24T14:00:14.528Z,23.90
2019-02-24T14:02:43.080Z,25.57
2019-02-24T14:05:11.712Z,17.97
2019-02-24T14:07:40.394Z,18.50
2019-02-24T14:10:12.001Z,18.43
2019-02-24T14:12:40.621Z,22.90
2019-02-24T14:15:11.682Z,65.40
2019-02-24T14:17:40.326Z,18.73
2019-02-24T14:20:14.065Z,54.40
2019-02-24T14:22:43.297Z,35.03
2019-02-24T14:25:13.306Z,25.37
2019-02-24T14:27:41.922Z,114.23
2019-02-24T14:30:17.910Z,23.50
2019-02-24T14:32:46.601Z,16.70
2019-02-24T14:35:17.714Z,17.00
2019-02-24T14:37:46.419Z,15.77
2019-02-24T14:40:15.043Z,13.77
2019-02-24T14:42:43.666Z,19.00
2019-02-24T14:45:20.438Z,16.10
2019-02-24T14:47:49.070Z,17.13
2019-02-24T14:50:17.715Z,116.27
2019-02-24T14:52:46.386Z,18.30
2019-02-24T14:55:16.181Z,15.73
2019-02-24T14:57:44.805Z,15.87
2019-02-24T15:00:21.204Z,16.70
2019-02-24T15:02:49.857Z,18.17
2019-02-24T15:05:18.540Z,14.40
2019-02-24T15:07:47.165Z,13.80
2019-02-24T15:10:21.011Z,17.30
2019-02-24T15:12:49.705Z,16.87
2019-02-24T15:15:21.239Z,21.60
2019-02-24T15:17:49.873Z,17.23
2019-02-24T15:20:20.192Z,16.10
2019-02-24T15:22:48.817Z,16.30
2019-02-24T15:25:18.923Z,16.60
2019-02-24T15:27:48.453Z,17.20
2019-02-24T15:30:32.226Z,40.97
2019-02-24T15:33:03.625Z,60.73
2019-02-24T15:35:32.435Z,46.57
2019-02-24T15:38:02.310Z,28.53
2019-02-24T15:40:30.941Z,24.40
2019-02-24T15:42:59.603Z,196.97
2019-02-24T15:45:28.317Z,90.63
2019-02-24T15:47:56.945Z,45.10
2019-02-24T15:50:25.646Z,30.33
2019-02-24T15:52:54.383Z,39.27
2019-02-24T15:55:23.223Z,30.87
2019-02-24T15:57:51.949Z,28.03
2019-02-24T16:00:22.443Z,27.00
2019-02-24T16:02:51.132Z,24.67
2019-02-24T16:05:19.759Z,78.40
2019-02-24T16:07:48.428Z,39.60
2019-02-24T16:10:24.460Z,30.63
2019-02-24T16:12:53.211Z,27.27
2019-02-24T16:15:28.058Z,28.87
2019-02-24T16:17:56.715Z,28.53
2019-02-24T16:20:36.208Z,33.83
2019-02-24T16:23:04.945Z,34.17
2019-02-24T16:25:35.032Z,45.33
2019-02-24T16:28:03.826Z,42.97
2019-02-24T16:30:32.530Z,37.53
2019-02-24T16:33:09.982Z,32.97
2019-02-24T16:35:31.570Z,32.50
2019-02-24T16:38:00.205Z,32.37
2019-02-24T16:40:29.360Z,27.73
2019-02-24T16:42:58.115Z,31.20
2019-02-24T16:45:26.723Z,31.33
2019-02-24T16:47:55.312Z,27.07
2019-02-24T16:50:25.009Z,26.90
2019-02-24T16:52:53.641Z,71.77
2019-02-24T16:55:22.273Z,26.73
2019-02-24T16:57:50.953Z,25.97
2019-02-24T17:00:21.453Z,27.80
2019-02-24T17:02:50.169Z,25.70
2019-02-24T17:05:18.839Z,22.07
2019-02-24T17:07:49.396Z,20.27
2019-02-24T17:10:20.668Z,20.67
2019-02-24T17:12:49.446Z,23.10
2019-02-24T17:15:18.143Z,21.03
2019-02-24T17:17:47.293Z,104.40
2019-02-24T17:20:19.238Z,80.30
2019-02-24T17:22:49.629Z,47.73
2019-02-24T17:25:18.574Z,59.20
2019-02-24T17:27:47.338Z,95.33
2019-02-24T17:30:17.043Z,45.77
2019-02-24T17:32:46.225Z,78.37
2019-02-24T17:35:15.503Z,77.80
2019-02-24T17:37:45.592Z,46.00
2019-02-24T17:40:19.405Z,27.30
2019-02-24T17:42:47.955Z,30.80
2019-02-24T17:45:16.653Z,43.20
2019-02-24T17:47:45.292Z,37.00
2019-02-24T17:50:15.142Z,26.73
2019-02-24T17:52:43.861Z,34.60
2019-02-24T17:55:14.469Z,29.10
2019-02-24T17:57:43.204Z,37.13
2019-02-24T18:00:34.193Z,34.20
2019-02-24T18:03:03.027Z,36.63
2019-02-24T18:05:31.598Z,36.27
2019-02-24T18:08:01.700Z,38.37
2019-02-24T18:10:30.449Z,168.80
2019-02-24T18:12:59.098Z,50.77
2019-02-24T18:15:27.990Z,40.77
2019-02-24T18:17:56.671Z,39.17
2019-02-24T18:20:25.617Z,35.27
2019-02-24T18:22:54.254Z,32.07
2019-02-24T18:25:23.304Z,46.23
2019-02-24T18:27:52.001Z,32.77
2019-02-24T18:30:24.867Z,31.40
2019-02-24T18:32:53.603Z,27.77
2019-02-24T18:35:22.251Z,29.67
2019-02-24T18:37:51.207Z,205.73
2019-02-24T18:40:19.895Z,34.10
2019-02-24T18:42:48.461Z,24.40
2019-02-24T18:45:17.368Z,34.67
2019-02-24T18:47:46.025Z,44.57
2019-02-24T18:50:19.483Z,69.90
2019-02-24T18:52:48.979Z,56.67
2019-02-24T18:55:17.726Z,36.57
2019-02-24T18:57:46.417Z,59.00
2019-02-24T19:00:21.484Z,33.37
2019-02-24T19:02:50.260Z,187.77
2019-02-24T19:05:19.001Z,222.60
2019-02-24T19:07:47.714Z,39.00
2019-02-24T19:10:21.528Z,68.87
2019-02-24T19:12:50.627Z,67.87
2019-02-24T19:15:21.506Z,30.67
2019-02-24T19:17:50.165Z,33.30
2019-02-24T19:20:20.320Z,31.53
2019-02-24T19:22:49.028Z,22.37
2019-02-24T19:25:18.093Z,23.77
2019-02-24T19:27:46.894Z,51.33
2019-02-24T19:30:18.483Z,28.23
2019-02-24T19:32:47.232Z,24.23
2019-02-24T19:35:17.057Z,23.03
2019-02-24T19:37:45.733Z,24.93
2019-02-24T19:40:21.949Z,23.57
2019-02-24T19:42:52.051Z,25.10
2019-02-24T19:45:23.609Z,23.10
2019-02-24T19:47:52.494Z,23.97
2019-02-24T19:50:22.162Z,21.83
2019-02-24T19:52:52.309Z,24.47
2019-02-24T19:55:20.961Z,40.13
2019-02-24T19:57:50.484Z,25.13
2019-02-24T20:00:25.804Z,33.53
2019-02-24T20:02:55.929Z,24.27
2019-02-24T20:05:24.664Z,27.10
2019-02-24T20:07:53.570Z,25.03
2019-02-24T20:10:29.942Z,26.20
2019-02-24T20:12:58.659Z,25.50
2019-02-24T20:15:27.363Z,29.10
2019-02-24T20:17:56.119Z,34.60
2019-02-24T20:20:24.773Z,114.30
2019-02-24T20:22:53.753Z,62.00
2019-02-24T20:25:23.620Z,75.50
2019-02-24T20:27:52.248Z,29.63
2019-02-24T20:30:28.494Z,30.50
2019-02-24T20:32:57.189Z,36.27
2019-02-24T20:35:25.783Z,26.50
2019-02-24T20:37:54.458Z,27.33
2019-02-24T20:40:23.203Z,27.57
2019-02-24T20:42:52.112Z,27.97
2019-02-24T20:45:22.092Z,385.90
2019-02-24T20:47:50.739Z,50.87
2019-02-24T20:50:21.854Z,29.80
2019-02-24T20:52:50.517Z,22.33
2019-02-24T20:55:19.201Z,23.40
2019-02-24T20:57:47.881Z,25.63
2019-02-24T21:00:28.974Z,26.17
2019-02-24T21:02:57.531Z,26.87
2019-02-24T21:05:26.325Z,29.13
2019-02-24T21:07:55.152Z,22.63
2019-02-24T21:10:24.104Z,26.93
2019-02-24T21:12:53.180Z,29.07
2019-02-24T21:15:21.924Z,25.20
2019-02-24T21:17:50.674Z,19.87
2019-02-24T21:20:27.988Z,24.40
2019-02-24T21:22:56.726Z,21.50
2019-02-24T21:25:25.993Z,20.77
2019-02-24T21:27:54.857Z,20.20
2019-02-24T21:30:25.265Z,17.63
2019-02-24T21:32:53.994Z,16.80
2019-02-24T21:35:22.770Z,19.00
2019-02-24T21:37:51.354Z,19.17
2019-02-24T21:40:20.894Z,19.20
2019-02-24T21:42:49.728Z,21.57
2019-02-24T21:45:23.498Z,48.53
2019-02-24T21:47:52.208Z,24.97
2019-02-24T21:50:20.912Z,20.73
2019-02-24T21:52:49.783Z,19.00
2019-02-24T21:55:18.690Z,15.93
2019-02-24T21:57:47.865Z,29.17
2019-02-24T22:00:26.901Z,40.37
2019-02-24T22:02:55.591Z,39.90
2019-02-24T22:05:24.597Z,51.93
2019-02-24T22:07:53.248Z,46.47
2019-02-24T22:10:23.580Z,41.17
2019-02-24T22:12:52.181Z,42.23
2019-02-24T22:15:25.306Z,56.00
2019-02-24T22:17:54.042Z,45.83
2019-02-24T22:20:24.165Z,47.10
2019-02-24T22:22:52.926Z,45.03
2019-02-24T22:25:22.059Z,68.47
2019-02-24T22:27:50.703Z,57.13
2019-02-24T22:30:21.044Z,62.63
2019-02-24T22:32:49.894Z,65.03
2019-02-24T22:35:19.781Z,63.07
2019-02-24T22:37:48.431Z,69.60
2019-02-24T22:40:17.668Z,79.60
2019-02-24T22:42:46.710Z,82.53
2019-02-24T22:45:21.899Z,78.27
2019-02-24T22:47:50.573Z,61.40
2019-02-24T22:50:19.234Z,68.70
2019-02-24T22:52:48.070Z,62.00
2019-02-24T22:55:17.964Z,66.33
2019-02-24T22:57:46.800Z,72.43
2019-02-24T23:00:24.561Z,73.33
2019-02-24T23:02:53.306Z,74.77
2019-02-24T23:05:21.944Z,82.13
2019-02-24T23:07:50.638Z,77.63
2019-02-24T23:10:19.279Z,80.30
2019-02-24T23:12:47.898Z,69.67
2019-02-24T23:15:16.669Z,73.90
2019-02-24T23:17:45.417Z,77.20
2019-02-24T23:20:14.115Z,78.03
2019-02-24T23:22:42.826Z,75.53
2019-02-24T23:25:11.465Z,80.57
2019-02-24T23:27:40.101Z,76.77
2019-02-24T23:30:10.258Z,69.90
2019-02-24T23:32:38.912Z,76.20
2019-02-24T23:35:07.958Z,70.53
2019-02-24T23:37:38.223Z,76.77
2019-02-24T23:40:08.852Z,74.50
2019-02-24T23:42:37.486Z,76.40
2019-02-24T23:45:11.073Z,75.00
2019-02-24T23:47:40.287Z,64.77
2019-02-24T23:50:12.759Z,63.87
2019-02-24T23:52:41.514Z,71.40
2019-02-24T23:55:10.956Z,65.40
2019-02-24T23:57:39.625Z,67.30
